Time;durP1;ratioP1;P1;durP2;ratioP2;P2;SDS_P1;SDS_P2;PMS_P1;PMS_P2;Temp;Humidity;BMP_temperature;BMP_pressure;BME280_temperature;BME280_humidity;BME280_pressure;Samples;Min_cycle;Max_cycle;Signal;HPM_P1;HPM_P2
2023/08/29 00:00:47;;;;;;;6.88;3.65;;;;;;;24.57;40.29;98504.63;4976152;28;20043;-96
2023/08/29 00:03:33;;;;;;;5.80;3.13;;;;;;;24.37;39.85;98478.53;4938794;29;20032;-96
2023/08/29 00:06:16;;;;;;;7.68;3.30;;;;;;;24.43;39.61;98484.47;4892913;29;20040;-96
2023/08/29 00:08:59;;;;;;;6.53;3.35;;;;;;;24.32;39.58;98460.41;4922420;29;20102;-96
2023/08/29 00:11:26;;;;;;;6.65;3.25;;;;;;;24.35;39.42;98473.41;4867876;29;20089;-96
2023/08/29 00:13:59;;;;;;;5.38;3.50;;;;;;;24.32;39.09;98463.16;4865829;29;20049;-96
2023/08/29 00:16:50;;;;;;;4.97;3.15;;;;;;;24.44;39.70;98481.31;4846218;29;20059;-96
2023/08/29 00:19:22;;;;;;;5.78;3.10;;;;;;;24.37;39.32;98473.03;4922454;29;20040;-96
2023/08/29 00:21:48;;;;;;;5.82;3.35;;;;;;;24.58;38.95;98494.41;4938387;29;20083;-96
2023/08/29 00:24:28;;;;;;;5.70;3.15;;;;;;;24.48;38.63;98484.88;4923454;29;20104;-96
2023/08/29 00:26:53;;;;;;;4.70;3.50;;;;;;;24.45;39.08;98491.16;4893715;29;20055;-96
2023/08/29 00:29:46;;;;;;;5.38;3.60;;;;;;;24.34;39.07;98469.09;4891873;29;20056;-96
2023/08/29 00:32:40;;;;;;;5.38;3.60;;;;;;;24.29;38.67;98466.66;4895051;29;20039;-96
2023/08/29 00:35:07;;;;;;;9.27;3.40;;;;;;;24.31;39.28;98471.81;4851560;29;20040;-96
2023/08/29 00:37:38;;;;;;;5.82;3.60;;;;;;;24.27;39.21;98463.50;4834831;29;20038;-96
2023/08/29 00:46:41;;;;;;;7.28;3.30;;;;;;;24.30;39.02;98479.28;4995915;28;20049;-96
2023/08/29 00:49:27;;;;;;;5.80;3.38;;;;;;;24.32;38.75;98479.69;5019092;28;20053;-96
2023/08/29 00:52:22;;;;;;;5.60;3.40;;;;;;;24.17;38.78;98469.72;5018073;28;20042;-96
2023/08/29 01:01:53;;;;;;;5.00;3.15;;;;;;;24.23;38.11;98470.16;4923068;28;20055;-96
2023/08/29 01:04:27;;;;;;;8.48;4.20;;;;;;;24.15;37.47;98464.59;5002941;28;20026;-96
2023/08/29 01:07:20;;;;;;;;;;;;;;;;;;;;;
2023/08/29 01:10:00;;;;;;;7.45;3.22;;;;;;;24.20;37.57;98480.75;5030566;28;20054;-96
2023/08/29 01:13:11;;;;;;;4.45;3.08;;;;;;;24.09;37.75;98457.09;4980671;28;20023;-96
2023/08/29 01:16:03;;;;;;;6.38;3.42;;;;;;;24.21;37.42;98465.81;4995268;28;20031;-96
2023/08/29 01:18:33;;;;;;;4.38;3.05;;;;;;;24.18;37.19;98449.31;4940823;28;20056;-96
2023/08/29 01:21:27;;;;;;;4.57;2.95;;;;;;;24.19;37.05;98454.41;4910533;29;20044;-96
2023/08/29 01:24:40;;;;;;;5.88;3.03;;;;;;;24.22;36.47;98444.63;4909506;29;20033;-96
2023/08/29 01:27:18;;;;;;;9.63;3.25;;;;;;;24.28;36.52;98445.03;4955857;28;20023;-96
2023/08/29 01:29:58;;;;;;;8.10;3.25;;;;;;;24.40;36.69;98459.28;4941375;28;20024;-96
2023/08/29 01:32:54;;;;;;;6.78;3.17;;;;;;;24.31;37.08;98447.03;4940078;29;20068;-96
2023/08/29 01:35:59;;;;;;;6.82;2.92;;;;;;;24.32;36.50;98441.16;4927316;28;20039;-96
2023/08/29 01:49:59;;;;;;;9.38;3.13;;;;;;;24.32;37.35;98438.41;4992855;28;20035;-96
2023/08/29 01:52:54;;;;;;;6.18;3.22;;;;;;;24.48;37.27;98451.84;4951267;28;20042;-96
2023/08/29 01:55:52;;;;;;;6.45;2.70;;;;;;;24.24;37.25;98423.03;4965430;28;20022;-96
2023/08/29 02:04:30;;;;;;;6.00;2.55;;;;;;;23.91;38.36;98407.47;5156836;22;20085;-96
2023/08/29 02:07:02;;;;;;;13.98;3.78;;;;;;;23.99;38.77;98409.88;4980042;28;20042;-96
2023/08/29 02:09:44;;;;;;;4.97;2.80;;;;;;;24.20;38.69;98425.75;4982951;28;20030;-96
2023/08/29 02:12:14;;;;;;;5.38;2.58;;;;;;;24.28;38.39;98437.59;4992977;28;20047;-96
2023/08/29 02:15:02;;;;;;;4.53;3.08;;;;;;;24.15;38.38;98414.31;4964058;28;20053;-96
2023/08/29 02:17:40;;;;;;;4.68;2.55;;;;;;;23.96;37.72;98398.84;4949043;28;20043;-96
2023/08/29 02:20:35;;;;;;;6.40;2.90;;;;;;;24.18;37.98;98428.09;4952959;29;20023;-96
2023/08/29 02:23:01;;;;;;;4.80;2.60;;;;;;;24.09;37.42;98422.13;5234714;23;20054;-89
2023/08/29 02:25:26;;;;;;;5.03;2.60;;;;;;;24.20;38.24;98427.72;4968351;28;20025;-89
2023/08/29 02:27:52;;;;;;;5.82;2.80;;;;;;;24.10;37.49;98412.72;4969744;28;20038;-89
2023/08/29 02:30:17;;;;;;;4.63;2.33;;;;;;;24.16;37.41;98418.66;4970358;28;20029;-89
2023/08/29 02:32:43;;;;;;;5.30;2.60;;;;;;;24.15;36.97;98420.59;4945782;28;20476;-89
2023/08/29 02:35:09;;;;;;;6.68;2.80;;;;;;;24.16;36.63;98411.19;4947308;28;20090;-89
2023/08/29 02:37:34;;;;;;;4.25;2.60;;;;;;;24.14;36.91;98405.28;4973540;28;20026;-88
2023/08/29 02:40:00;;;;;;;4.45;2.17;;;;;;;24.18;36.69;98411.59;4974431;28;20033;-89
2023/08/29 02:42:26;;;;;;;4.30;2.55;;;;;;;24.24;36.82;98406.53;4970991;28;20021;-89
2023/08/29 02:44:51;;;;;;;3.80;2.50;;;;;;;24.24;36.33;98402.97;4999733;28;20042;-89
2023/08/29 02:47:17;;;;;;;6.93;2.50;;;;;;;24.28;35.97;98403.78;4983977;28;20029;-89
2023/08/29 02:49:42;;;;;;;4.00;2.53;;;;;;;24.35;35.95;98412.88;4986498;28;20025;-88
2023/08/29 02:52:08;;;;;;;3.35;2.17;;;;;;;24.29;36.38;98400.66;4972381;28;20026;-89
2023/08/29 02:54:34;;;;;;;4.07;2.53;;;;;;;24.18;36.50;98389.59;4977125;28;20053;-89
2023/08/29 02:57:00;;;;;;;10.23;2.53;;;;;;;24.35;36.53;98414.84;4975752;28;20104;-89
2023/08/29 02:59:26;;;;;;;10.68;2.97;;;;;;;24.36;37.12;98411.72;4969116;28;20021;-89
2023/08/29 03:01:51;;;;;;;5.10;2.80;;;;;;;24.36;37.05;98411.72;4968817;28;20010;-89
2023/08/29 03:04:17;;;;;;;5.80;2.22;;;;;;;24.49;37.25;98423.19;4985139;28;20101;-89
2023/08/29 03:06:42;;;;;;;6.65;2.67;;;;;;;24.32;37.67;98391.63;4978734;28;20025;-89
2023/08/29 03:09:08;;;;;;;3.80;2.40;;;;;;;24.32;37.39;98399.88;4977246;28;20022;-89
2023/08/29 03:11:33;;;;;;;4.72;2.40;;;;;;;24.36;37.37;98402.63;4976483;28;20026;-88
2023/08/29 03:13:59;;;;;;;4.30;2.88;;;;;;;24.35;37.40;98403.81;4979088;28;20026;-89
2023/08/29 03:16:25;;;;;;;4.07;2.38;;;;;;;24.36;37.58;98402.63;4975379;28;20051;-88
2023/08/29 03:18:53;;;;;;;4.90;2.10;;;;;;;24.34;37.85;98400.28;4995921;28;20423;-89
2023/08/29 03:21:19;;;;;;;5.60;2.47;;;;;;;24.25;37.98;98390.81;4970757;28;20026;-91
2023/08/29 03:23:50;;;;;;;5.47;2.95;;;;;;;24.25;38.22;98393.53;4968946;28;20037;-91
2023/08/29 03:26:16;;;;;;;4.80;2.38;;;;;;;24.27;37.95;98397.50;4969346;28;20042;-90
2023/08/29 03:28:41;;;;;;;4.60;2.45;;;;;;;24.27;38.00;98403.00;4968730;28;20034;-90
2023/08/29 03:31:08;;;;;;;7.32;2.53;;;;;;;24.29;37.82;98408.91;4984046;28;20026;-90
2023/08/29 03:33:34;;;;;;;5.60;2.72;;;;;;;24.08;37.79;98398.56;4968996;28;20022;-90
2023/08/29 03:36:00;;;;;;;6.72;2.85;;;;;;;24.10;37.95;98387.19;4968666;28;20412;-90
2023/08/29 03:38:25;;;;;;;6.10;2.30;;;;;;;24.10;38.31;98393.47;4968876;28;20511;-89
2023/08/29 03:41:06;;;;;;;4.63;2.60;;;;;;;24.02;38.57;98385.56;4968310;28;20480;-89
2023/08/29 03:43:35;;;;;;;6.60;2.78;;;;;;;23.98;38.02;98386.31;4985866;28;20034;-90
2023/08/29 03:46:04;;;;;;;4.35;2.70;;;;;;;24.09;37.96;98400.13;4968023;28;20026;-89
2023/08/29 03:48:32;;;;;;;5.57;2.70;;;;;;;24.07;37.88;98393.44;4984934;28;20037;-89
2023/08/29 03:51:07;;;;;;;5.30;2.80;;;;;;;24.14;37.47;98402.53;4984779;28;20002;-90
2023/08/29 03:53:39;;;;;;;4.95;2.22;;;;;;;24.13;37.21;98402.91;4971178;28;20026;-90
2023/08/29 03:56:07;;;;;;;8.48;5.07;;;;;;;24.20;36.79;98398.25;4969153;28;20020;-90
2023/08/29 03:58:33;;;;;;;7.88;3.17;;;;;;;24.13;37.09;98375.41;4968461;28;20026;-90
2023/08/29 04:00:59;;;;;;;5.90;2.50;;;;;;;24.30;37.34;98396.72;4968396;28;20114;-89
2023/08/29 04:03:24;;;;;;;9.10;3.17;;;;;;;24.17;37.29;98373.44;4967032;28;20049;-90
2023/08/29 04:05:50;;;;;;;7.28;3.13;;;;;;;24.36;37.00;98392.44;4983776;28;20112;-90
2023/08/29 04:08:18;;;;;;;10.15;2.72;;;;;;;24.37;37.27;98390.47;4967840;28;20518;-89
2023/08/29 04:10:43;;;;;;;5.70;2.72;;;;;;;24.47;37.70;98402.72;4969262;28;20045;-89
2023/08/29 04:13:10;;;;;;;6.88;3.17;;;;;;;24.45;37.88;98397.59;4968448;28;20026;-90
2023/08/29 04:15:36;;;;;;;6.72;2.80;;;;;;;24.29;37.50;98375.09;4968150;28;20034;-90
2023/08/29 04:18:02;;;;;;;10.30;3.13;;;;;;;24.46;37.86;98406.63;4967746;28;20024;-90
2023/08/29 04:20:28;;;;;;;13.02;2.85;;;;;;;24.60;37.92;98421.28;4968709;28;20057;-89
2023/08/29 04:22:55;;;;;;;7.57;2.65;;;;;;;24.53;37.08;98403.94;4972420;28;20459;-89
2023/08/29 04:25:20;;;;;;;9.23;2.95;;;;;;;24.43;37.34;98377.16;4973337;28;20109;-89
2023/08/29 04:27:47;;;;;;;6.28;2.80;;;;;;;24.59;37.00;98394.94;4951483;28;20121;-89
2023/08/29 04:30:13;;;;;;;6.57;3.00;;;;;;;24.64;36.50;98393.00;4960742;28;20108;-89
2023/08/29 04:32:39;;;;;;;4.15;2.50;;;;;;;24.67;36.47;98389.47;4943231;28;20018;-88
2023/08/29 04:35:08;;;;;;;10.73;2.90;;;;;;;24.75;36.49;98393.81;4952960;28;20030;-88
2023/08/29 04:37:35;;;;;;;9.00;2.70;;;;;;;24.94;36.65;98406.47;4967459;28;20014;-88
2023/08/29 04:40:10;;;;;;;4.60;2.50;;;;;;;24.87;36.38;98393.47;4970774;28;20512;-88
2023/08/29 04:42:40;;;;;;;10.32;3.63;;;;;;;24.98;36.25;98396.25;4965027;28;20034;-88
2023/08/29 04:45:07;;;;;;;5.47;2.40;;;;;;;25.01;35.75;98389.97;4967552;28;20499;-89
2023/08/29 04:47:33;;;;;;;8.75;2.80;;;;;;;25.04;36.22;98389.19;4967139;28;20101;-88
2023/08/29 04:50:00;;;;;;;6.65;2.70;;;;;;;25.09;34.75;98382.50;4966899;28;20026;-88
2023/08/29 04:52:26;;;;;;;7.90;3.00;;;;;;;25.25;35.17;98387.69;4967318;28;20443;-88
2023/08/29 04:54:57;;;;;;;6.03;2.75;;;;;;;25.23;34.96;98379.81;4968478;28;20030;-89
2023/08/29 04:57:23;;;;;;;5.25;2.63;;;;;;;25.31;34.64;98370.38;4969202;28;20156;-89
2023/08/29 05:00:01;;;;;;;8.02;2.70;;;;;;;25.51;34.41;98386.56;4966630;28;20045;-89
2023/08/29 05:02:26;;;;;;;6.80;2.92;;;;;;;25.53;34.05;98370.41;4961394;28;20026;-89
2023/08/29 05:04:52;;;;;;;6.88;2.35;;;;;;;25.66;34.28;98385.34;4955696;28;20025;-88
2023/08/29 05:07:20;;;;;;;6.93;2.83;;;;;;;25.69;33.53;98365.28;4944580;28;20066;-89
2023/08/29 05:09:46;;;;;;;6.65;3.20;;;;;;;25.84;33.15;98371.56;4944105;28;20026;-89
2023/08/29 05:12:12;;;;;;;6.82;2.92;;;;;;;25.89;33.36;98357.41;4943960;28;20030;-89
2023/08/29 05:14:38;;;;;;;8.02;4.15;;;;;;;25.95;33.47;98364.09;4948458;28;20073;-89
2023/08/29 05:17:08;;;;;;;5.97;3.05;;;;;;;26.12;32.85;98379.03;4958638;28;20036;-90
2023/08/29 05:19:33;;;;;;;8.93;3.40;;;;;;;26.20;32.79;98369.56;4950246;28;20096;-88
2023/08/29 05:21:59;;;;;;;4.47;3.00;;;;;;;26.18;33.18;98360.88;4979014;28;20061;-89
2023/08/29 05:24:27;;;;;;;5.13;2.50;;;;;;;26.32;33.03;98376.63;4981082;28;20057;-92
2023/08/29 05:27:40;;;;;;;6.38;2.63;;;;;;;26.51;33.26;98388.41;4976850;28;20125;-89
2023/08/29 05:30:13;;;;;;;6.03;2.65;;;;;;;26.48;33.03;98373.44;4996069;28;20045;-90
2023/08/29 05:32:40;;;;;;;9.30;4.05;;;;;;;26.64;32.69;98373.00;4973738;28;20029;-90
2023/08/29 05:35:12;;;;;;;8.07;3.03;;;;;;;26.54;32.84;98352.50;4989739;28;20034;-90
2023/08/29 05:37:37;;;;;;;10.20;3.03;;;;;;;26.59;33.23;98354.09;4968387;28;20030;-91
2023/08/29 05:40:22;;;;;;;3.90;2.15;;;;;;;26.85;33.27;98388.69;4956382;28;20465;-90
2023/08/29 05:43:22;;;;;;;4.93;2.63;;;;;;;26.76;33.40;98369.00;4964234;28;20100;-89
2023/08/29 05:46:45;;;;;;;5.28;2.80;;;;;;;26.98;33.26;98387.03;4982463;28;20125;-90
2023/08/29 05:49:41;;;;;;;;;;;;;;;;;;;;;
2023/08/29 05:52:16;;;;;;;7.72;3.22;;;;;;;27.08;33.14;98366.06;5009290;28;20084;-88
2023/08/29 05:54:44;;;;;;;4.40;2.75;;;;;;;27.23;33.08;98366.00;4975586;28;20101;-88
2023/08/29 05:58:21;;;;;;;;;;;;;;;;;;;;;
2023/08/29 06:00:55;;;;;;;7.85;2.70;;;;;;;27.52;32.76;98388.72;4969082;28;20139;-90
2023/08/29 06:07:28;;;;;;;;;;;;;;;;;;;;;
2023/08/29 06:10:40;;;;;;;4.43;2.70;;;;;;;27.47;32.69;98369.78;4927960;29;20036;-89
2023/08/29 06:14:00;;;;;;;5.07;2.95;;;;;;;27.64;32.76;98370.81;4890428;29;20052;-89
2023/08/29 06:16:31;;;;;;;9.27;3.10;;;;;;;27.67;32.74;98350.66;4849963;29;20104;-95
2023/08/29 06:22:15;;;;;;;6.20;3.10;;;;;;;28.06;32.56;98382.72;4848096;29;20375;-93
2023/08/29 06:24:41;;;;;;;7.07;3.13;;;;;;;27.95;32.06;98358.72;4853854;29;20041;-88
2023/08/29 06:27:09;;;;;;;5.85;3.47;;;;;;;28.06;32.36;98352.28;4917946;29;20086;-87
2023/08/29 06:29:58;;;;;;;13.57;4.38;;;;;;;28.16;32.42;98360.50;4912982;29;20035;-88
2023/08/29 06:32:25;;;;;;;9.20;3.70;;;;;;;28.29;31.75;98357.97;4921532;29;20080;-87
2023/08/29 06:35:26;;;;;;;6.25;3.63;;;;;;;28.40;31.71;98355.06;4912740;29;20042;-89
2023/08/29 06:38:30;;;;;;;;;;;;;;;;;;;;;
2023/08/29 06:40:57;;;;;;;4.93;3.45;;;;;;;28.70;31.01;98372.94;4894857;29;20123;-90
2023/08/29 06:43:23;;;;;;;6.75;3.15;;;;;;;28.72;31.31;98365.81;4890782;29;20091;-91
2023/08/29 06:45:53;;;;;;;8.55;2.90;;;;;;;28.60;31.82;98358.81;4926826;29;20043;-90
2023/08/29 06:54:15;;;;;;;8.07;5.18;;;;;;;29.01;31.03;98368.16;4960081;28;20054;-90
2023/08/29 06:56:50;;;;;;;10.68;8.18;;;;;;;29.06;30.72;98364.16;4934931;29;20031;-89
2023/08/29 06:59:20;;;;;;;6.35;3.22;;;;;;;29.19;31.13;98374.25;4946690;29;20027;-89
2023/08/29 07:02:31;;;;;;;6.93;3.53;;;;;;;29.21;31.24;98360.75;4947205;29;20031;-90
2023/08/29 07:08:52;;;;;;;7.35;3.10;;;;;;;29.34;30.97;98366.50;4903188;29;20037;-90
2023/08/29 07:11:18;;;;;;;6.55;3.25;;;;;;;29.54;30.60;98369.38;4923003;28;20035;-90
2023/08/29 07:13:44;;;;;;;10.93;3.38;;;;;;;29.57;31.08;98362.19;4916959;29;20403;-90
2023/08/29 07:16:13;;;;;;;7.28;4.28;;;;;;;29.66;30.91;98367.22;4912166;29;20043;-90
2023/08/29 07:18:42;;;;;;;10.15;4.40;;;;;;;29.84;31.54;98387.13;4927067;29;20031;-96
2023/08/29 07:21:34;;;;;;;9.00;6.03;;;;;;;29.75;31.32;98359.16;4922181;29;20028;-96
2023/08/29 07:24:00;;;;;;;4.85;3.40;;;;;;;29.90;30.77;98363.25;4912243;29;20044;-90
2023/08/29 07:26:26;;;;;;;8.50;3.88;;;;;;;29.98;31.68;98352.81;4877492;29;20039;-90
2023/08/29 07:29:00;;;;;;;13.57;6.82;;;;;;;30.16;30.79;98360.81;4886497;29;20127;-94
2023/08/29 07:31:28;;;;;;;6.78;4.32;;;;;;;30.20;31.48;98362.31;4880640;29;20040;-94
2023/08/29 07:34:15;;;;;;;8.35;4.00;;;;;;;30.18;31.54;98355.63;4889623;29;20067;-90
2023/08/29 07:36:44;;;;;;;13.68;5.43;;;;;;;30.45;31.12;98380.50;4902007;29;20048;-91
2023/08/29 07:39:11;;;;;;;13.40;8.88;;;;;;;30.51;31.27;98358.56;4906376;29;20035;-91
2023/08/29 07:41:37;;;;;;;13.68;8.48;;;;;;;30.54;32.00;98357.69;4882462;29;20051;-89
2023/08/29 07:44:06;;;;;;;10.65;4.78;;;;;;;30.72;31.09;98383.13;4895036;29;20411;-89
2023/08/29 07:46:31;;;;;;;6.72;3.97;;;;;;;30.80;30.72;98376.22;4875466;29;20151;-90
2023/08/29 07:49:20;;;;;;;8.43;5.25;;;;;;;30.78;30.76;98367.50;4883696;29;20180;-90
2023/08/29 07:51:46;;;;;;;6.53;3.70;;;;;;;30.80;30.47;98369.88;4898224;28;20043;-89
2023/08/29 07:54:12;;;;;;;8.20;4.13;;;;;;;30.92;30.81;98376.78;4897239;29;20471;-89
2023/08/29 08:02:38;;;;;;;;;;;;;;;;;;;;;
2023/08/29 08:05:24;;;;;;;6.32;4.03;;;;;;;31.14;29.87;98366.75;4950611;29;19982;-93
2023/08/29 08:08:00;;;;;;;5.03;3.50;;;;;;;31.11;29.58;98345.38;4919319;29;20099;-92
2023/08/29 08:10:33;;;;;;;11.65;4.38;;;;;;;31.27;29.77;98363.28;4955244;29;20031;-92
2023/08/29 08:13:07;;;;;;;12.38;4.45;;;;;;;31.19;29.32;98362.66;4927130;29;20034;-90
2023/08/29 08:15:36;;;;;;;8.98;4.30;;;;;;;31.26;30.83;98362.50;4954616;29;20058;-90
2023/08/29 08:18:27;;;;;;;8.98;4.10;;;;;;;31.42;29.83;98372.88;4920045;29;20015;-91
2023/08/29 08:20:57;;;;;;;6.07;3.75;;;;;;;31.49;29.67;98360.81;4945608;29;20035;-91
2023/08/29 08:23:23;;;;;;;9.38;4.60;;;;;;;31.50;29.48;98371.53;4928952;29;20036;-91
2023/08/29 08:25:52;;;;;;;11.18;4.80;;;;;;;31.53;29.65;98353.16;4896619;29;20566;-90
2023/08/29 08:28:18;;;;;;;8.77;4.30;;;;;;;31.56;29.37;98360.63;4913241;29;20036;-90
2023/08/29 08:30:52;;;;;;;8.00;5.53;;;;;;;31.77;29.58;98378.78;4896857;29;20031;-90
2023/08/29 08:33:18;;;;;;;11.68;5.65;;;;;;;31.61;28.47;98354.56;4897274;29;20047;-91
2023/08/29 08:35:44;;;;;;;7.57;5.30;;;;;;;31.67;28.87;98361.16;4896662;29;20032;-90
2023/08/29 08:38:15;;;;;;;6.35;3.60;;;;;;;31.67;28.52;98360.34;4925664;29;20100;-90
2023/08/29 08:40:49;;;;;;;8.23;4.15;;;;;;;31.68;28.76;98368.28;4910242;29;20485;-90
2023/08/29 08:43:15;;;;;;;6.85;3.88;;;;;;;31.79;28.45;98359.66;4909005;29;20032;-90
2023/08/29 08:45:41;;;;;;;7.07;3.50;;;;;;;31.88;28.22;98367.41;4893046;29;20134;-92
2023/08/29 08:48:17;;;;;;;;;;;;;;;;;;;;;
2023/08/29 08:50:45;;;;;;;7.75;4.30;;;;;;;31.72;28.63;98351.50;4909520;29;20562;-92
2023/08/29 08:56:08;;;;;;;7.95;4.10;;;;;;;31.51;29.10;98334.13;4946372;29;20028;-91
2023/08/29 08:58:39;;;;;;;7.38;4.80;;;;;;;31.71;29.34;98324.88;4956280;28;20046;-92
2023/08/29 09:01:05;;;;;;;6.18;3.88;;;;;;;31.80;29.04;98353.66;4946511;29;20031;-93
2023/08/29 09:03:34;;;;;;;11.88;4.82;;;;;;;31.93;29.14;98352.94;4921596;29;20506;-92
2023/08/29 09:06:06;;;;;;;6.03;3.92;;;;;;;31.96;29.08;98357.59;4921261;29;20054;-95
2023/08/29 09:08:41;;;;;;;7.85;4.53;;;;;;;32.10;28.58;98348.13;4914748;29;20019;-92
2023/08/29 09:11:16;;;;;;;6.80;4.22;;;;;;;32.10;28.88;98334.97;4933913;29;20036;-92
2023/08/29 09:13:54;;;;;;;9.57;4.28;;;;;;;32.03;28.20;98335.19;4928870;28;20079;-93
2023/08/29 09:16:42;;;;;;;8.40;4.53;;;;;;;32.26;28.28;98344.53;4949276;28;20466;-92
2023/08/29 09:19:27;;;;;;;9.13;4.38;;;;;;;32.18;28.68;98341.16;4944098;29;20114;-91
2023/08/29 09:22:08;;;;;;;6.30;3.70;;;;;;;32.37;28.19;98361.72;4960722;28;20538;-92
2023/08/29 09:24:42;;;;;;;9.00;4.38;;;;;;;32.25;28.49;98340.16;4954087;28;20090;-91
2023/08/29 09:27:17;;;;;;;8.38;3.90;;;;;;;32.37;28.10;98356.13;4951750;28;20023;-91
2023/08/29 09:30:14;;;;;;;10.48;4.07;;;;;;;32.07;28.50;98330.31;4950660;28;20457;-91
2023/08/29 09:32:54;;;;;;;26.05;12.98;;;;;;;32.29;28.08;98330.50;4949991;28;20109;-91
2023/08/29 09:35:24;;;;;;;10.77;4.78;;;;;;;32.41;28.75;98338.09;4962096;28;20054;-90
2023/08/29 09:41:09;;;;;;;7.03;3.80;;;;;;;32.41;28.54;98315.78;4946304;28;20036;-91
2023/08/29 09:43:48;;;;;;;8.32;3.78;;;;;;;32.35;28.66;98308.44;4928642;28;20110;-91
2023/08/29 09:46:36;;;;;;;6.55;4.28;;;;;;;32.41;28.54;98318.59;4931521;29;20034;-91
2023/08/29 09:49:03;;;;;;;8.13;4.40;;;;;;;32.40;28.53;98300.31;4945403;29;20035;-90
2023/08/29 09:51:31;;;;;;;8.82;4.50;;;;;;;32.38;28.88;98293.63;4930606;29;20027;-92
2023/08/29 09:54:26;;;;;;;5.28;3.78;;;;;;;32.50;28.14;98295.66;4962878;28;20034;-95
2023/08/29 09:57:35;;;;;;;6.88;3.50;;;;;;;32.50;28.04;98304.03;4906615;29;20043;-96
2023/08/29 10:00:01;;;;;;;9.52;3.78;;;;;;;32.54;28.58;98301.94;4925580;29;20098;-96
2023/08/29 10:07:45;;;;;;;6.13;3.92;;;;;;;32.75;27.77;98303.28;5565044;22;20065;-95
2023/08/29 10:10:59;;;;;;;;;;;;;;;;;;;;;
2023/08/29 10:14:04;;;;;;;8.00;4.05;;;;;;;32.87;27.25;98287.00;5961437;23;21193;-96
2023/08/29 10:16:44;;;;;;;8.27;3.72;;;;;;;32.91;27.87;98309.97;5012499;28;20047;-95
2023/08/29 10:28:27;;;;;;;9.38;4.30;;;;;;;33.39;26.68;98308.06;5176459;23;20509;-96
2023/08/29 10:41:54;;;;;;;9.35;4.40;;;;;;;33.59;27.13;98297.41;5151508;23;20093;-96
2023/08/29 10:44:55;;;;;;;14.75;7.50;;;;;;;33.70;26.26;98293.50;5003126;28;20056;-96
2023/08/29 10:53:40;;;;;;;;;;;;;;;;;;;;;
2023/08/29 11:31:24;;;;;;;5.10;3.80;;;;;;;33.95;25.71;98233.97;5562305;22;20061;-95
2023/08/29 11:33:52;;;;;;;7.90;4.13;;;;;;;34.09;25.06;98224.28;4999265;28;20136;-96
2023/08/29 11:36:33;;;;;;;8.40;4.00;;;;;;;34.04;24.87;98230.47;4987162;28;20070;-96
2023/08/29 11:57:20;;;;;;;5.95;3.85;;;;;;;33.94;25.12;98210.84;5009266;28;20057;-96
2023/08/29 11:59:53;;;;;;;7.05;4.25;;;;;;;34.08;24.78;98192.00;4957473;28;20030;-94
2023/08/29 12:02:22;;;;;;;4.45;3.50;;;;;;;34.16;25.25;98193.28;4962337;28;20018;-96
2023/08/29 12:05:10;;;;;;;;;;;;;;;;;;;;;
2023/08/29 12:08:01;;;;;;;6.78;3.63;;;;;;;34.29;24.52;98202.38;4948861;28;20114;-95
2023/08/29 12:10:34;;;;;;;6.82;3.40;;;;;;;34.31;24.34;98208.28;4959432;28;20026;-95
2023/08/29 12:13:12;;;;;;;5.80;3.40;;;;;;;34.31;23.83;98188.72;4954103;28;20042;-94
2023/08/29 12:15:40;;;;;;;6.68;3.58;;;;;;;34.45;23.97;98206.97;4954260;28;20034;-96
2023/08/29 12:18:44;;;;;;;;;;;;;;;;;;;;;
2023/08/29 12:21:20;;;;;;;9.48;4.10;;;;;;;34.43;24.32;98212.25;4977778;28;20058;-95
2023/08/29 12:26:25;;;;;;;5.60;3.17;;;;;;;34.26;24.36;98185.75;5006619;28;20065;-96
2023/08/29 12:28:50;;;;;;;5.13;3.45;;;;;;;34.22;24.21;98169.13;4973671;28;20156;-94
2023/08/29 12:31:18;;;;;;;7.85;3.25;;;;;;;34.35;24.05;98191.41;4969863;28;20018;-94
2023/08/29 12:33:50;;;;;;;6.15;3.28;;;;;;;34.33;24.09;98191.84;4971282;28;20496;-96
2023/08/29 12:36:40;;;;;;;6.13;4.00;;;;;;;34.36;24.35;98199.28;4986428;28;20027;-96
2023/08/29 12:39:12;;;;;;;9.82;4.35;;;;;;;34.45;24.14;98189.41;4986155;28;20034;-94
2023/08/29 12:41:38;;;;;;;5.10;3.30;;;;;;;34.31;24.04;98168.41;4971016;28;20023;-95
2023/08/29 12:44:14;;;;;;;;;;;;;;;;;;;;;
2023/08/29 12:46:47;;;;;;;10.30;3.97;;;;;;;34.28;24.15;98160.91;4989370;28;20081;-96
2023/08/29 12:53:29;;;;;;;8.05;3.70;;;;;;;34.39;24.09;98184.41;4873250;29;20030;-94
2023/08/29 12:59:17;;;;;;;4.85;3.00;;;;;;;34.20;23.43;98169.59;5246907;22;20134;-95
2023/08/29 13:01:45;;;;;;;6.88;3.20;;;;;;;34.25;23.92;98153.47;4999747;28;20105;-95
2023/08/29 13:04:19;;;;;;;4.82;3.38;;;;;;;34.19;23.91;98134.50;5260624;23;20034;-93
2023/08/29 13:07:01;;;;;;;4.95;3.10;;;;;;;34.48;23.82;98161.31;5006508;28;20054;-95
2023/08/29 13:09:51;;;;;;;6.68;2.80;;;;;;;34.37;23.31;98135.81;5015564;28;20061;-96
2023/08/29 13:12:18;;;;;;;6.35;3.42;;;;;;;34.53;22.99;98135.56;5010523;28;20106;-95
2023/08/29 13:29:47;;;;;;;5.55;2.60;;;;;;;34.58;23.82;98151.72;4936928;29;20135;-86
2023/08/29 13:32:13;;;;;;;4.15;2.75;;;;;;;34.45;23.35;98141.88;4912186;29;20187;-89
2023/08/29 13:38:13;;;;;;;7.35;3.00;;;;;;;34.48;23.69;98127.75;4894545;29;20523;-91
2023/08/29 13:40:39;;;;;;;8.60;3.13;;;;;;;34.52;23.53;98119.25;4879112;29;20036;-90
2023/08/29 13:43:05;;;;;;;4.70;2.85;;;;;;;34.52;23.68;98122.81;4946855;28;20072;-89
2023/08/29 13:45:45;;;;;;;5.30;3.50;;;;;;;34.65;22.73;98122.72;4960397;28;20038;-89
2023/08/29 13:48:18;;;;;;;4.18;3.00;;;;;;;34.83;23.17;98137.97;4936077;28;20113;-89
2023/08/29 13:50:54;;;;;;;8.23;3.10;;;;;;;34.98;23.49;98144.50;4953039;28;20038;-91
2023/08/29 13:53:19;;;;;;;5.45;3.70;;;;;;;34.64;23.99;98126.75;4943654;28;20046;-89
2023/08/29 13:55:59;;;;;;;5.53;3.03;;;;;;;34.68;23.70;98141.38;4961068;28;20121;-89
2023/08/29 13:58:27;;;;;;;4.38;3.08;;;;;;;34.65;24.01;98119.13;4958699;28;20089;-89
2023/08/29 14:00:59;;;;;;;4.97;2.78;;;;;;;34.78;24.13;98125.38;4957044;28;20037;-90
2023/08/29 14:03:28;;;;;;;5.78;3.20;;;;;;;34.67;24.04;98117.44;4983390;28;20033;-90
2023/08/29 14:05:58;;;;;;;4.47;2.88;;;;;;;34.72;23.88;98108.44;4967063;28;20030;-91
2023/08/29 14:08:24;;;;;;;6.23;2.93;;;;;;;34.76;23.97;98105.47;4954528;28;20035;-90
2023/08/29 14:10:50;;;;;;;7.72;3.10;;;;;;;34.78;23.43;98114.97;4934193;28;20085;-91
2023/08/29 14:13:21;;;;;;;7.32;3.60;;;;;;;34.77;23.34;98099.44;4939666;28;20043;-92
2023/08/29 14:15:47;;;;;;;6.90;3.20;;;;;;;34.85;23.08;98091.53;4945208;28;20030;-89
2023/08/29 14:18:13;;;;;;;4.97;2.63;;;;;;;34.74;23.40;98097.56;4972502;28;20427;-91
2023/08/29 14:21:02;;;;;;;4.80;2.75;;;;;;;34.76;23.80;98111.88;4959984;28;20057;-91
2023/08/29 14:23:28;;;;;;;6.65;2.60;;;;;;;34.61;23.42;98102.47;4928631;29;20107;-89
2023/08/29 14:25:55;;;;;;;4.00;2.95;;;;;;;34.65;24.05;98110.75;4941144;29;20046;-90
2023/08/29 14:28:23;;;;;;;7.80;2.88;;;;;;;34.22;24.74;98088.88;4914315;29;20037;-89
2023/08/29 14:30:52;;;;;;;10.15;3.38;;;;;;;34.23;24.86;98100.81;4910476;29;20043;-90
2023/08/29 14:33:18;;;;;;;5.20;2.70;;;;;;;34.08;24.53;98081.03;4951124;29;20042;-90
2023/08/29 14:35:43;;;;;;;4.85;2.40;;;;;;;34.08;24.40;98097.03;4906777;29;20035;-92
2023/08/29 14:38:09;;;;;;;6.13;3.10;;;;;;;34.09;24.37;98093.75;4920749;29;20043;-90
2023/08/29 14:40:38;;;;;;;8.32;3.45;;;;;;;34.03;24.88;98070.44;4924591;29;20071;-90
2023/08/29 14:43:04;;;;;;;7.20;2.75;;;;;;;34.10;25.44;98088.97;4923518;29;20035;-89
2023/08/29 14:45:29;;;;;;;11.85;3.65;;;;;;;33.85;24.67;98075.94;4937393;29;20105;-90
2023/08/29 14:47:55;;;;;;;6.50;2.80;;;;;;;33.93;24.93;98085.59;4908166;29;20039;-89
2023/08/29 14:50:20;;;;;;;6.78;2.63;;;;;;;34.37;24.39;98086.28;4920360;28;20039;-91
2023/08/29 14:52:50;;;;;;;6.75;2.70;;;;;;;34.81;23.88;98077.69;4929325;29;20050;-91
2023/08/29 14:55:44;;;;;;;6.55;3.10;;;;;;;35.60;23.94;98101.44;4941536;29;20077;-92
2023/08/29 14:58:11;;;;;;;7.85;3.20;;;;;;;35.68;23.53;98069.09;4937218;29;20050;-88
2023/08/29 15:00:41;;;;;;;7.32;3.10;;;;;;;35.61;24.02;98080.59;4927547;29;20043;-90
2023/08/29 15:03:10;;;;;;;7.40;2.67;;;;;;;35.74;23.50;98083.25;4909010;29;20034;-89
2023/08/29 15:05:35;;;;;;;4.35;2.97;;;;;;;35.87;23.17;98100.63;4927110;29;20474;-90
2023/08/29 15:08:03;;;;;;;4.63;2.90;;;;;;;35.69;23.98;98107.03;4911781;29;20034;-89
2023/08/29 15:10:30;;;;;;;8.43;3.00;;;;;;;35.10;24.20;98081.28;4926557;29;20482;-89
2023/08/29 15:12:56;;;;;;;6.57;3.53;;;;;;;35.21;24.29;98101.94;4916424;28;20461;-90